sensor_id;sensor_type;location;lat;lon;timestamp;temperature;humidity
68691;DHT22;55675;49.588;8.640;2022-09-28T00:00:05;12.10;93.60
68691;DHT22;55675;49.588;8.640;2022-09-28T00:02:31;12.00;93.60
68691;DHT22;55675;49.588;8.640;2022-09-28T00:04:56;12.10;93.60
68691;DHT22;55675;49.588;8.640;2022-09-28T00:07:22;12.00;93.60
68691;DHT22;55675;49.588;8.640;2022-09-28T00:09:47;12.00;93.70
68691;DHT22;55675;49.588;8.640;2022-09-28T00:12:13;12.10;93.90
68691;DHT22;55675;49.588;8.640;2022-09-28T00:14:39;12.00;93.90
68691;DHT22;55675;49.588;8.640;2022-09-28T00:17:05;12.00;94.00
68691;DHT22;55675;49.588;8.640;2022-09-28T00:19:30;12.00;94.00
68691;DHT22;55675;49.588;8.640;2022-09-28T00:21:56;12.10;94.10
68691;DHT22;55675;49.588;8.640;2022-09-28T00:24:21;12.10;94.10
68691;DHT22;55675;49.588;8.640;2022-09-28T00:26:51;12.00;94.10
68691;DHT22;55675;49.588;8.640;2022-09-28T00:29:22;12.00;94.20
68691;DHT22;55675;49.588;8.640;2022-09-28T00:31:53;12.00;94.30
68691;DHT22;55675;49.588;8.640;2022-09-28T00:34:45;12.10;94.40
68691;DHT22;55675;49.588;8.640;2022-09-28T00:37:13;12.00;94.30
68691;DHT22;55675;49.588;8.640;2022-09-28T00:39:40;12.00;94.50
68691;DHT22;55675;49.588;8.640;2022-09-28T00:42:17;12.00;94.70
68691;DHT22;55675;49.588;8.640;2022-09-28T00:44:54;12.00;94.70
68691;DHT22;55675;49.588;8.640;2022-09-28T00:52:37;12.00;94.80
68691;DHT22;55675;49.588;8.640;2022-09-28T00:55:08;12.10;94.80
68691;DHT22;55675;49.588;8.640;2022-09-28T00:57:36;12.10;94.70
68691;DHT22;55675;49.588;8.640;2022-09-28T01:00:04;12.10;94.80
68691;DHT22;55675;49.588;8.640;2022-09-28T01:02:30;12.10;94.80
68691;DHT22;55675;49.588;8.640;2022-09-28T01:04:57;12.20;94.80
68691;DHT22;55675;49.588;8.640;2022-09-28T01:07:23;12.20;94.80
68691;DHT22;55675;49.588;8.640;2022-09-28T01:09:49;12.20;94.70
68691;DHT22;55675;49.588;8.640;2022-09-28T01:12:15;12.20;94.70
68691;DHT22;55675;49.588;8.640;2022-09-28T01:14:41;12.20;94.70
68691;DHT22;55675;49.588;8.640;2022-09-28T01:17:23;12.20;94.80
68691;DHT22;55675;49.588;8.640;2022-09-28T01:20:18;12.30;94.80
68691;DHT22;55675;49.588;8.640;2022-09-28T01:25:41;12.30;94.70
68691;DHT22;55675;49.588;8.640;2022-09-28T01:28:14;12.30;94.70
68691;DHT22;55675;49.588;8.640;2022-09-28T01:30:55;12.20;94.80
68691;DHT22;55675;49.588;8.640;2022-09-28T01:33:27;12.20;94.90
68691;DHT22;55675;49.588;8.640;2022-09-28T01:36:02;12.20;94.90
68691;DHT22;55675;49.588;8.640;2022-09-28T01:38:40;12.20;95.00
68691;DHT22;55675;49.588;8.640;2022-09-28T01:41:07;12.20;95.00
68691;DHT22;55675;49.588;8.640;2022-09-28T01:43:37;12.30;95.00
68691;DHT22;55675;49.588;8.640;2022-09-28T01:46:12;12.30;94.90
68691;DHT22;55675;49.588;8.640;2022-09-28T01:48:40;12.30;95.00
68691;DHT22;55675;49.588;8.640;2022-09-28T01:51:11;12.20;95.00
68691;DHT22;55675;49.588;8.640;2022-09-28T01:53:43;12.30;95.10
68691;DHT22;55675;49.588;8.640;2022-09-28T01:56:14;12.30;95.10
68691;DHT22;55675;49.588;8.640;2022-09-28T01:59:06;12.30;95.10
68691;DHT22;55675;49.588;8.640;2022-09-28T02:01:39;12.30;95.20
68691;DHT22;55675;49.588;8.640;2022-09-28T02:04:11;12.30;95.10
68691;DHT22;55675;49.588;8.640;2022-09-28T02:06:43;12.30;95.20
68691;DHT22;55675;49.588;8.640;2022-09-28T02:09:15;12.30;95.20
68691;DHT22;55675;49.588;8.640;2022-09-28T02:11:48;12.30;95.20
68691;DHT22;55675;49.588;8.640;2022-09-28T02:14:16;12.30;95.30
68691;DHT22;55675;49.588;8.640;2022-09-28T02:16:44;12.30;95.40
68691;DHT22;55675;49.588;8.640;2022-09-28T02:19:46;12.30;95.50
68691;DHT22;55675;49.588;8.640;2022-09-28T02:22:27;12.30;95.60
68691;DHT22;55675;49.588;8.640;2022-09-28T02:25:10;12.40;95.50
68691;DHT22;55675;49.588;8.640;2022-09-28T02:27:51;12.40;95.50
68691;DHT22;55675;49.588;8.640;2022-09-28T02:30:18;12.30;95.50
68691;DHT22;55675;49.588;8.640;2022-09-28T02:32:48;12.40;95.60
68691;DHT22;55675;49.588;8.640;2022-09-28T02:35:16;12.40;95.60
68691;DHT22;55675;49.588;8.640;2022-09-28T02:37:42;12.40;95.60
68691;DHT22;55675;49.588;8.640;2022-09-28T02:40:17;12.40;95.50
68691;DHT22;55675;49.588;8.640;2022-09-28T02:45:58;12.40;95.50
68691;DHT22;55675;49.588;8.640;2022-09-28T02:54:28;12.50;95.30
68691;DHT22;55675;49.588;8.640;2022-09-28T02:57:11;12.50;95.20
68691;DHT22;55675;49.588;8.640;2022-09-28T03:00:27;12.50;95.20
68691;DHT22;55675;49.588;8.640;2022-09-28T03:05:20;12.60;94.80
68691;DHT22;55675;49.588;8.640;2022-09-28T03:08:00;12.60;95.20
68691;DHT22;55675;49.588;8.640;2022-09-28T03:10:42;12.60;94.90
68691;DHT22;55675;49.588;8.640;2022-09-28T03:13:09;12.60;94.80
68691;DHT22;55675;49.588;8.640;2022-09-28T03:15:35;12.60;94.80
68691;DHT22;55675;49.588;8.640;2022-09-28T03:18:01;12.60;94.80
68691;DHT22;55675;49.588;8.640;2022-09-28T03:20:29;12.60;94.80
68691;DHT22;55675;49.588;8.640;2022-09-28T03:22:55;12.60;94.80
68691;DHT22;55675;49.588;8.640;2022-09-28T03:25:20;12.50;94.60
68691;DHT22;55675;49.588;8.640;2022-09-28T03:27:46;12.50;94.70
68691;DHT22;55675;49.588;8.640;2022-09-28T03:30:12;12.50;94.70
68691;DHT22;55675;49.588;8.640;2022-09-28T03:32:38;12.50;94.70
68691;DHT22;55675;49.588;8.640;2022-09-28T03:35:06;12.50;94.70
68691;DHT22;55675;49.588;8.640;2022-09-28T03:37:31;12.50;94.80
68691;DHT22;55675;49.588;8.640;2022-09-28T03:39:57;12.50;94.90
68691;DHT22;55675;49.588;8.640;2022-09-28T03:42:23;12.50;94.70
68691;DHT22;55675;49.588;8.640;2022-09-28T03:44:48;12.50;94.60
68691;DHT22;55675;49.588;8.640;2022-09-28T03:47:14;12.50;94.70
68691;DHT22;55675;49.588;8.640;2022-09-28T03:49:41;12.50;94.70
68691;DHT22;55675;49.588;8.640;2022-09-28T03:52:07;12.50;94.70
68691;DHT22;55675;49.588;8.640;2022-09-28T03:54:32;12.60;94.70
68691;DHT22;55675;49.588;8.640;2022-09-28T03:56:57;12.60;94.60
68691;DHT22;55675;49.588;8.640;2022-09-28T03:59:23;12.60;94.50
68691;DHT22;55675;49.588;8.640;2022-09-28T04:01:49;12.60;94.50
68691;DHT22;55675;49.588;8.640;2022-09-28T04:04:15;12.60;94.40
68691;DHT22;55675;49.588;8.640;2022-09-28T04:06:40;12.60;94.40
68691;DHT22;55675;49.588;8.640;2022-09-28T04:09:06;12.60;94.30
68691;DHT22;55675;49.588;8.640;2022-09-28T04:11:32;12.60;94.20
68691;DHT22;55675;49.588;8.640;2022-09-28T04:13:57;12.60;93.90
68691;DHT22;55675;49.588;8.640;2022-09-28T04:16:23;12.60;93.80
68691;DHT22;55675;49.588;8.640;2022-09-28T04:18:49;12.40;93.90
68691;DHT22;55675;49.588;8.640;2022-09-28T04:21:16;12.30;93.90
68691;DHT22;55675;49.588;8.640;2022-09-28T04:23:42;12.30;94.10
68691;DHT22;55675;49.588;8.640;2022-09-28T04:26:17;12.20;94.20
68691;DHT22;55675;49.588;8.640;2022-09-28T04:28:44;12.10;94.20
68691;DHT22;55675;49.588;8.640;2022-09-28T04:31:28;12.10;94.30
68691;DHT22;55675;49.588;8.640;2022-09-28T04:33:56;12.10;94.40
68691;DHT22;55675;49.588;8.640;2022-09-28T04:36:22;12.10;94.40
68691;DHT22;55675;49.588;8.640;2022-09-28T04:38:52;12.10;94.40
68691;DHT22;55675;49.588;8.640;2022-09-28T04:41:17;12.10;94.40
68691;DHT22;55675;49.588;8.640;2022-09-28T04:43:45;12.20;94.40
68691;DHT22;55675;49.588;8.640;2022-09-28T04:46:11;12.20;94.30
68691;DHT22;55675;49.588;8.640;2022-09-28T04:48:37;12.10;94.40
68691;DHT22;55675;49.588;8.640;2022-09-28T04:51:02;12.20;94.40
68691;DHT22;55675;49.588;8.640;2022-09-28T04:53:29;12.20;94.70
68691;DHT22;55675;49.588;8.640;2022-09-28T04:56:01;12.20;94.40
68691;DHT22;55675;49.588;8.640;2022-09-28T04:58:27;12.20;94.40
68691;DHT22;55675;49.588;8.640;2022-09-28T05:00:56;12.20;94.40
68691;DHT22;55675;49.588;8.640;2022-09-28T05:03:22;12.20;94.40
68691;DHT22;55675;49.588;8.640;2022-09-28T05:05:48;12.20;94.40
68691;DHT22;55675;49.588;8.640;2022-09-28T05:08:14;12.20;94.40
68691;DHT22;55675;49.588;8.640;2022-09-28T05:10:40;12.20;94.30
68691;DHT22;55675;49.588;8.640;2022-09-28T05:13:07;12.20;94.30
68691;DHT22;55675;49.588;8.640;2022-09-28T05:15:36;12.20;94.30
68691;DHT22;55675;49.588;8.640;2022-09-28T05:18:02;12.20;94.30
68691;DHT22;55675;49.588;8.640;2022-09-28T05:20:28;12.20;94.20
68691;DHT22;55675;49.588;8.640;2022-09-28T05:22:53;12.20;94.20
68691;DHT22;55675;49.588;8.640;2022-09-28T05:25:19;12.20;94.20
68691;DHT22;55675;49.588;8.640;2022-09-28T05:27:44;12.20;94.10
68691;DHT22;55675;49.588;8.640;2022-09-28T05:30:10;12.20;94.10
68691;DHT22;55675;49.588;8.640;2022-09-28T05:32:40;12.20;94.10
68691;DHT22;55675;49.588;8.640;2022-09-28T05:35:06;12.10;94.10
68691;DHT22;55675;49.588;8.640;2022-09-28T05:37:32;12.10;94.20
68691;DHT22;55675;49.588;8.640;2022-09-28T05:39:57;12.10;94.20
68691;DHT22;55675;49.588;8.640;2022-09-28T05:42:23;12.20;94.20
68691;DHT22;55675;49.588;8.640;2022-09-28T05:44:48;12.20;94.10
68691;DHT22;55675;49.588;8.640;2022-09-28T05:47:14;12.20;94.10
68691;DHT22;55675;49.588;8.640;2022-09-28T05:49:39;12.20;94.00
68691;DHT22;55675;49.588;8.640;2022-09-28T05:52:05;12.10;94.00
68691;DHT22;55675;49.588;8.640;2022-09-28T05:54:30;12.10;93.90
68691;DHT22;55675;49.588;8.640;2022-09-28T05:56:55;12.10;94.00
68691;DHT22;55675;49.588;8.640;2022-09-28T05:59:21;12.00;94.00
68691;DHT22;55675;49.588;8.640;2022-09-28T06:01:46;12.00;94.00
68691;DHT22;55675;49.588;8.640;2022-09-28T06:04:12;12.00;94.10
68691;DHT22;55675;49.588;8.640;2022-09-28T06:06:40;12.00;94.10
68691;DHT22;55675;49.588;8.640;2022-09-28T06:09:05;12.10;94.20
68691;DHT22;55675;49.588;8.640;2022-09-28T06:11:31;12.10;94.10
68691;DHT22;55675;49.588;8.640;2022-09-28T06:13:57;12.10;94.10
68691;DHT22;55675;49.588;8.640;2022-09-28T06:16:22;12.20;93.70
68691;DHT22;55675;49.588;8.640;2022-09-28T06:18:48;12.10;93.40
68691;DHT22;55675;49.588;8.640;2022-09-28T06:21:14;12.10;93.50
68691;DHT22;55675;49.588;8.640;2022-09-28T06:23:39;12.10;93.70
68691;DHT22;55675;49.588;8.640;2022-09-28T06:26:05;12.10;93.70
68691;DHT22;55675;49.588;8.640;2022-09-28T06:28:30;12.10;93.70
68691;DHT22;55675;49.588;8.640;2022-09-28T06:30:58;12.10;93.50
68691;DHT22;55675;49.588;8.640;2022-09-28T06:33:24;12.20;93.50
68691;DHT22;55675;49.588;8.640;2022-09-28T06:35:50;12.30;93.50
68691;DHT22;55675;49.588;8.640;2022-09-28T06:38:16;12.20;93.80
68691;DHT22;55675;49.588;8.640;2022-09-28T06:40:42;12.20;93.60
68691;DHT22;55675;49.588;8.640;2022-09-28T06:43:12;12.20;93.70
68691;DHT22;55675;49.588;8.640;2022-09-28T06:45:40;12.20;93.80
68691;DHT22;55675;49.588;8.640;2022-09-28T06:48:06;12.20;93.60
68691;DHT22;55675;49.588;8.640;2022-09-28T06:50:35;12.20;93.60
68691;DHT22;55675;49.588;8.640;2022-09-28T06:53:02;12.20;93.70
68691;DHT22;55675;49.588;8.640;2022-09-28T06:55:28;12.20;93.60
68691;DHT22;55675;49.588;8.640;2022-09-28T06:58:02;12.20;93.80
68691;DHT22;55675;49.588;8.640;2022-09-28T07:00:31;12.20;93.40
68691;DHT22;55675;49.588;8.640;2022-09-28T07:02:59;12.20;93.40
68691;DHT22;55675;49.588;8.640;2022-09-28T07:05:25;12.30;92.90
68691;DHT22;55675;49.588;8.640;2022-09-28T07:07:55;12.30;93.00
68691;DHT22;55675;49.588;8.640;2022-09-28T07:10:25;12.30;92.80
68691;DHT22;55675;49.588;8.640;2022-09-28T07:12:55;12.30;92.40
68691;DHT22;55675;49.588;8.640;2022-09-28T07:15:22;12.40;92.60
68691;DHT22;55675;49.588;8.640;2022-09-28T07:17:47;12.40;92.40
68691;DHT22;55675;49.588;8.640;2022-09-28T07:20:13;12.40;91.90
68691;DHT22;55675;49.588;8.640;2022-09-28T07:22:39;12.50;91.10
68691;DHT22;55675;49.588;8.640;2022-09-28T07:25:05;12.50;91.10
68691;DHT22;55675;49.588;8.640;2022-09-28T07:27:31;12.50;90.20
68691;DHT22;55675;49.588;8.640;2022-09-28T07:29:57;12.50;90.40
68691;DHT22;55675;49.588;8.640;2022-09-28T07:32:23;12.50;90.40
68691;DHT22;55675;49.588;8.640;2022-09-28T07:34:49;12.60;90.00
68691;DHT22;55675;49.588;8.640;2022-09-28T07:37:15;12.50;87.70
68691;DHT22;55675;49.588;8.640;2022-09-28T07:39:43;12.60;88.90
68691;DHT22;55675;49.588;8.640;2022-09-28T07:42:28;12.60;89.00
68691;DHT22;55675;49.588;8.640;2022-09-28T07:44:55;12.70;86.70
68691;DHT22;55675;49.588;8.640;2022-09-28T07:47:21;12.70;87.30
68691;DHT22;55675;49.588;8.640;2022-09-28T07:49:56;12.70;85.90
68691;DHT22;55675;49.588;8.640;2022-09-28T07:52:24;12.70;85.90
68691;DHT22;55675;49.588;8.640;2022-09-28T07:54:54;12.80;85.00
68691;DHT22;55675;49.588;8.640;2022-09-28T07:57:20;12.90;85.20
68691;DHT22;55675;49.588;8.640;2022-09-28T07:59:47;13.00;84.60
68691;DHT22;55675;49.588;8.640;2022-09-28T08:02:14;13.10;83.10
68691;DHT22;55675;49.588;8.640;2022-09-28T08:04:40;13.20;83.20
68691;DHT22;55675;49.588;8.640;2022-09-28T08:07:09;13.30;81.70
68691;DHT22;55675;49.588;8.640;2022-09-28T08:09:35;13.30;80.40
68691;DHT22;55675;49.588;8.640;2022-09-28T08:12:00;13.40;80.30
68691;DHT22;55675;49.588;8.640;2022-09-28T08:14:26;13.50;79.00
68691;DHT22;55675;49.588;8.640;2022-09-28T08:16:52;13.60;78.90
68691;DHT22;55675;49.588;8.640;2022-09-28T08:19:18;13.70;78.30
68691;DHT22;55675;49.588;8.640;2022-09-28T08:21:43;13.90;75.80
68691;DHT22;55675;49.588;8.640;2022-09-28T08:24:10;14.00;75.50
68691;DHT22;55675;49.588;8.640;2022-09-28T08:26:35;14.30;77.00
68691;DHT22;55675;49.588;8.640;2022-09-28T08:29:01;14.50;74.70
68691;DHT22;55675;49.588;8.640;2022-09-28T08:31:27;14.70;74.90
68691;DHT22;55675;49.588;8.640;2022-09-28T08:33:52;14.80;74.90
68691;DHT22;55675;49.588;8.640;2022-09-28T08:36:18;14.90;73.10
68691;DHT22;55675;49.588;8.640;2022-09-28T08:38:45;14.90;73.70
68691;DHT22;55675;49.588;8.640;2022-09-28T08:43:54;14.90;72.20
68691;DHT22;55675;49.588;8.640;2022-09-28T08:46:24;14.80;72.60
68691;DHT22;55675;49.588;8.640;2022-09-28T08:49:02;14.80;72.80
68691;DHT22;55675;49.588;8.640;2022-09-28T08:54:29;15.20;71.60
68691;DHT22;55675;49.588;8.640;2022-09-28T08:57:06;15.40;70.90
68691;DHT22;55675;49.588;8.640;2022-09-28T08:59:51;15.60;71.20
68691;DHT22;55675;49.588;8.640;2022-09-28T09:02:41;15.70;69.70
68691;DHT22;55675;49.588;8.640;2022-09-28T09:05:10;15.80;69.40
68691;DHT22;55675;49.588;8.640;2022-09-28T09:11:10;15.70;69.10
68691;DHT22;55675;49.588;8.640;2022-09-28T09:13:44;15.60;70.50
68691;DHT22;55675;49.588;8.640;2022-09-28T09:16:43;15.60;70.50
68691;DHT22;55675;49.588;8.640;2022-09-28T09:19:16;15.40;70.30
68691;DHT22;55675;49.588;8.640;2022-09-28T09:27:33;15.40;71.70
68691;DHT22;55675;49.588;8.640;2022-09-28T09:41:07;16.20;68.50
68691;DHT22;55675;49.588;8.640;2022-09-28T09:46:36;16.40;67.40
68691;DHT22;55675;49.588;8.640;2022-09-28T09:49:15;16.10;64.60
68691;DHT22;55675;49.588;8.640;2022-09-28T09:52:11;15.80;66.40
68691;DHT22;55675;49.588;8.640;2022-09-28T09:54:53;15.60;66.50
68691;DHT22;55675;49.588;8.640;2022-09-28T09:57:26;15.50;66.80
68691;DHT22;55675;49.588;8.640;2022-09-28T09:59:52;15.40;68.40
68691;DHT22;55675;49.588;8.640;2022-09-28T10:02:27;15.30;68.30
68691;DHT22;55675;49.588;8.640;2022-09-28T10:05:02;15.40;68.40
68691;DHT22;55675;49.588;8.640;2022-09-28T10:07:36;15.70;68.40
68691;DHT22;55675;49.588;8.640;2022-09-28T10:10:02;16.00;66.90
68691;DHT22;55675;49.588;8.640;2022-09-28T10:12:35;16.20;65.00
68691;DHT22;55675;49.588;8.640;2022-09-28T10:15:02;16.10;63.70
68691;DHT22;55675;49.588;8.640;2022-09-28T10:17:31;16.00;63.60
68691;DHT22;55675;49.588;8.640;2022-09-28T10:19:56;16.00;60.40
68691;DHT22;55675;49.588;8.640;2022-09-28T10:22:25;15.90;60.30
68691;DHT22;55675;49.588;8.640;2022-09-28T10:24:54;15.70;62.20
68691;DHT22;55675;49.588;8.640;2022-09-28T10:27:30;15.60;63.40
68691;DHT22;55675;49.588;8.640;2022-09-28T10:30:13;15.60;63.50
68691;DHT22;55675;49.588;8.640;2022-09-28T10:32:42;15.40;62.70
68691;DHT22;55675;49.588;8.640;2022-09-28T10:43:19;15.20;59.10
68691;DHT22;55675;49.588;8.640;2022-09-28T10:45:47;15.20;58.00
68691;DHT22;55675;49.588;8.640;2022-09-28T10:48:20;15.20;59.10
68691;DHT22;55675;49.588;8.640;2022-09-28T10:51:05;15.20;57.60
68691;DHT22;55675;49.588;8.640;2022-09-28T10:53:31;15.20;56.30
68691;DHT22;55675;49.588;8.640;2022-09-28T10:56:01;15.40;56.50
68691;DHT22;55675;49.588;8.640;2022-09-28T10:58:36;15.70;55.80
68691;DHT22;55675;49.588;8.640;2022-09-28T11:01:06;15.80;55.70
68691;DHT22;55675;49.588;8.640;2022-09-28T11:03:38;15.80;56.10
68691;DHT22;55675;49.588;8.640;2022-09-28T11:06:06;15.90;55.50
68691;DHT22;55675;49.588;8.640;2022-09-28T11:08:38;16.10;55.90
68691;DHT22;55675;49.588;8.640;2022-09-28T11:11:09;16.20;54.40
68691;DHT22;55675;49.588;8.640;2022-09-28T11:13:41;16.10;54.70
68691;DHT22;55675;49.588;8.640;2022-09-28T11:16:07;16.10;55.90
68691;DHT22;55675;49.588;8.640;2022-09-28T11:18:42;16.10;55.10
68691;DHT22;55675;49.588;8.640;2022-09-28T11:21:16;16.20;55.30
68691;DHT22;55675;49.588;8.640;2022-09-28T11:24:04;16.20;55.60
68691;DHT22;55675;49.588;8.640;2022-09-28T11:26:53;16.20;56.00
68691;DHT22;55675;49.588;8.640;2022-09-28T11:29:39;16.20;57.10
68691;DHT22;55675;49.588;8.640;2022-09-28T11:32:07;16.10;56.30
68691;DHT22;55675;49.588;8.640;2022-09-28T11:34:42;16.10;56.50
68691;DHT22;55675;49.588;8.640;2022-09-28T11:40:14;16.20;56.70
68691;DHT22;55675;49.588;8.640;2022-09-28T11:56:28;16.70;53.70
68691;DHT22;55675;49.588;8.640;2022-09-28T11:58:59;16.50;54.80
68691;DHT22;55675;49.588;8.640;2022-09-28T12:04:14;16.20;56.50
68691;DHT22;55675;49.588;8.640;2022-09-28T12:07:18;16.10;56.80
68691;DHT22;55675;49.588;8.640;2022-09-28T12:12:28;16.10;57.80
68691;DHT22;55675;49.588;8.640;2022-09-28T12:15:00;16.20;57.60
68691;DHT22;55675;49.588;8.640;2022-09-28T12:17:35;16.20;57.20
68691;DHT22;55675;49.588;8.640;2022-09-28T12:23:28;16.40;56.90
68691;DHT22;55675;49.588;8.640;2022-09-28T12:26:04;16.50;56.50
68691;DHT22;55675;49.588;8.640;2022-09-28T12:28:49;16.70;55.90
68691;DHT22;55675;49.588;8.640;2022-09-28T12:31:20;16.90;55.00
68691;DHT22;55675;49.588;8.640;2022-09-28T12:33:50;17.10;55.40
68691;DHT22;55675;49.588;8.640;2022-09-28T12:36:28;17.30;54.70
68691;DHT22;55675;49.588;8.640;2022-09-28T12:45:20;17.10;51.90
68691;DHT22;55675;49.588;8.640;2022-09-28T12:48:04;16.90;53.00
68691;DHT22;55675;49.588;8.640;2022-09-28T12:50:57;16.70;52.50
68691;DHT22;55675;49.588;8.640;2022-09-28T12:56:01;16.60;53.90
68691;DHT22;55675;49.588;8.640;2022-09-28T13:04:05;17.40;53.00
68691;DHT22;55675;49.588;8.640;2022-09-28T13:06:42;17.80;51.80
68691;DHT22;55675;49.588;8.640;2022-09-28T13:09:24;18.00;51.30
68691;DHT22;55675;49.588;8.640;2022-09-28T13:12:11;18.00;50.60
68691;DHT22;55675;49.588;8.640;2022-09-28T13:15:06;18.00;51.40
68691;DHT22;55675;49.588;8.640;2022-09-28T13:17:52;18.30;50.30
68691;DHT22;55675;49.588;8.640;2022-09-28T13:23:09;18.80;48.40
68691;DHT22;55675;49.588;8.640;2022-09-28T13:25:39;18.50;49.20
68691;DHT22;55675;49.588;8.640;2022-09-28T13:28:08;18.30;47.80
68691;DHT22;55675;49.588;8.640;2022-09-28T13:30:37;18.00;47.80
68691;DHT22;55675;49.588;8.640;2022-09-28T13:33:05;17.60;49.40
68691;DHT22;55675;49.588;8.640;2022-09-28T13:35:32;17.50;50.50
68691;DHT22;55675;49.588;8.640;2022-09-28T13:46:43;17.10;52.30
68691;DHT22;55675;49.588;8.640;2022-09-28T13:49:25;17.10;51.30
68691;DHT22;55675;49.588;8.640;2022-09-28T13:54:43;17.70;50.80
68691;DHT22;55675;49.588;8.640;2022-09-28T13:57:39;18.60;50.70
68691;DHT22;55675;49.588;8.640;2022-09-28T14:05:39;20.70;43.70
68691;DHT22;55675;49.588;8.640;2022-09-28T14:10:54;20.00;44.40
68691;DHT22;55675;49.588;8.640;2022-09-28T14:18:44;20.60;44.70
68691;DHT22;55675;49.588;8.640;2022-09-28T14:29:29;20.00;45.10
68691;DHT22;55675;49.588;8.640;2022-09-28T14:32:22;19.60;46.00
68691;DHT22;55675;49.588;8.640;2022-09-28T14:34:58;19.20;46.50
68691;DHT22;55675;49.588;8.640;2022-09-28T14:37:32;18.80;47.60
68691;DHT22;55675;49.588;8.640;2022-09-28T14:40:24;18.60;47.90
68691;DHT22;55675;49.588;8.640;2022-09-28T14:54:05;17.90;50.00
68691;DHT22;55675;49.588;8.640;2022-09-28T14:56:50;17.80;50.70
68691;DHT22;55675;49.588;8.640;2022-09-28T14:59:26;18.10;51.40
68691;DHT22;55675;49.588;8.640;2022-09-28T15:02:00;18.40;49.90
68691;DHT22;55675;49.588;8.640;2022-09-28T15:04:30;18.40;50.00
68691;DHT22;55675;49.588;8.640;2022-09-28T15:06:56;18.50;49.70
68691;DHT22;55675;49.588;8.640;2022-09-28T15:09:32;18.60;49.50
68691;DHT22;55675;49.588;8.640;2022-09-28T15:11:59;18.70;49.90
68691;DHT22;55675;49.588;8.640;2022-09-28T15:14:26;18.70;50.20
68691;DHT22;55675;49.588;8.640;2022-09-28T15:16:57;18.70;49.60
68691;DHT22;55675;49.588;8.640;2022-09-28T15:19:34;18.70;49.10
68691;DHT22;55675;49.588;8.640;2022-09-28T15:22:02;18.70;49.50
68691;DHT22;55675;49.588;8.640;2022-09-28T15:24:33;18.70;48.80
68691;DHT22;55675;49.588;8.640;2022-09-28T15:27:10;18.70;49.60
68691;DHT22;55675;49.588;8.640;2022-09-28T15:29:38;18.70;50.10
68691;DHT22;55675;49.588;8.640;2022-09-28T15:32:04;18.70;48.90
68691;DHT22;55675;49.588;8.640;2022-09-28T15:34:35;18.50;49.20
68691;DHT22;55675;49.588;8.640;2022-09-28T15:37:20;18.40;48.70
68691;DHT22;55675;49.588;8.640;2022-09-28T15:39:47;18.10;50.80
68691;DHT22;55675;49.588;8.640;2022-09-28T15:42:15;18.00;50.10
68691;DHT22;55675;49.588;8.640;2022-09-28T15:44:42;17.80;51.90
68691;DHT22;55675;49.588;8.640;2022-09-28T15:47:22;17.70;52.00
68691;DHT22;55675;49.588;8.640;2022-09-28T15:52:38;17.60;53.20
68691;DHT22;55675;49.588;8.640;2022-09-28T15:55:23;17.50;53.50
68691;DHT22;55675;49.588;8.640;2022-09-28T15:57:50;17.40;54.90
68691;DHT22;55675;49.588;8.640;2022-09-28T16:00:29;17.40;57.00
68691;DHT22;55675;49.588;8.640;2022-09-28T16:05:51;17.30;57.40
68691;DHT22;55675;49.588;8.640;2022-09-28T16:08:36;17.30;58.10
68691;DHT22;55675;49.588;8.640;2022-09-28T16:13:36;17.40;58.40
68691;DHT22;55675;49.588;8.640;2022-09-28T16:16:14;17.40;59.10
68691;DHT22;55675;49.588;8.640;2022-09-28T16:18:46;17.40;59.10
68691;DHT22;55675;49.588;8.640;2022-09-28T16:21:38;17.30;59.30
68691;DHT22;55675;49.588;8.640;2022-09-28T16:24:06;17.30;59.30
68691;DHT22;55675;49.588;8.640;2022-09-28T16:26:35;17.20;59.60
68691;DHT22;55675;49.588;8.640;2022-09-28T16:29:23;17.10;60.60
68691;DHT22;55675;49.588;8.640;2022-09-28T16:31:50;16.90;61.50
68691;DHT22;55675;49.588;8.640;2022-09-28T16:34:24;16.70;62.00
68691;DHT22;55675;49.588;8.640;2022-09-28T16:36:50;16.60;61.70
68691;DHT22;55675;49.588;8.640;2022-09-28T16:39:17;16.40;59.60
68691;DHT22;55675;49.588;8.640;2022-09-28T16:41:50;16.30;60.00
68691;DHT22;55675;49.588;8.640;2022-09-28T16:44:25;16.20;60.60
68691;DHT22;55675;49.588;8.640;2022-09-28T16:46:56;16.10;62.20
68691;DHT22;55675;49.588;8.640;2022-09-28T16:49:23;16.00;62.20
68691;DHT22;55675;49.588;8.640;2022-09-28T16:51:50;15.90;62.80
68691;DHT22;55675;49.588;8.640;2022-09-28T16:54:17;15.80;65.20
68691;DHT22;55675;49.588;8.640;2022-09-28T16:57:03;15.70;65.90
68691;DHT22;55675;49.588;8.640;2022-09-28T16:59:29;15.60;66.90
68691;DHT22;55675;49.588;8.640;2022-09-28T17:01:55;15.40;67.60
68691;DHT22;55675;49.588;8.640;2022-09-28T17:04:22;15.30;68.40
68691;DHT22;55675;49.588;8.640;2022-09-28T17:06:52;15.20;69.10
68691;DHT22;55675;49.588;8.640;2022-09-28T17:09:20;15.00;69.20
68691;DHT22;55675;49.588;8.640;2022-09-28T17:11:45;14.90;69.50
68691;DHT22;55675;49.588;8.640;2022-09-28T17:14:11;14.70;70.40
68691;DHT22;55675;49.588;8.640;2022-09-28T17:16:37;14.60;71.20
68691;DHT22;55675;49.588;8.640;2022-09-28T17:19:21;14.40;71.90
68691;DHT22;55675;49.588;8.640;2022-09-28T17:21:48;14.30;72.50
68691;DHT22;55675;49.588;8.640;2022-09-28T17:24:14;14.10;72.60
68691;DHT22;55675;49.588;8.640;2022-09-28T17:26:40;14.00;73.20
68691;DHT22;55675;49.588;8.640;2022-09-28T17:29:10;13.80;73.70
68691;DHT22;55675;49.588;8.640;2022-09-28T17:31:42;13.70;73.90
68691;DHT22;55675;49.588;8.640;2022-09-28T17:34:08;13.60;74.10
68691;DHT22;55675;49.588;8.640;2022-09-28T17:36:35;13.50;74.30
68691;DHT22;55675;49.588;8.640;2022-09-28T17:39:00;13.40;74.70
68691;DHT22;55675;49.588;8.640;2022-09-28T17:41:26;13.30;75.00
68691;DHT22;55675;49.588;8.640;2022-09-28T17:43:51;13.30;75.20
68691;DHT22;55675;49.588;8.640;2022-09-28T17:46:24;13.20;75.80
68691;DHT22;55675;49.588;8.640;2022-09-28T17:48:51;13.20;76.20
68691;DHT22;55675;49.588;8.640;2022-09-28T17:51:17;13.10;76.00
68691;DHT22;55675;49.588;8.640;2022-09-28T17:53:42;13.10;76.50
68691;DHT22;55675;49.588;8.640;2022-09-28T17:56:08;13.00;76.70
68691;DHT22;55675;49.588;8.640;2022-09-28T17:58:34;13.00;77.40
68691;DHT22;55675;49.588;8.640;2022-09-28T18:01:00;13.00;78.00
68691;DHT22;55675;49.588;8.640;2022-09-28T18:03:25;12.90;78.50
68691;DHT22;55675;49.588;8.640;2022-09-28T18:06:05;12.90;79.60
68691;DHT22;55675;49.588;8.640;2022-09-28T18:08:32;12.80;79.80
68691;DHT22;55675;49.588;8.640;2022-09-28T18:10:58;12.70;79.80
68691;DHT22;55675;49.588;8.640;2022-09-28T18:13:26;12.60;80.10
68691;DHT22;55675;49.588;8.640;2022-09-28T18:15:52;12.60;80.60
68691;DHT22;55675;49.588;8.640;2022-09-28T18:18:18;12.60;81.00
68691;DHT22;55675;49.588;8.640;2022-09-28T18:20:44;12.60;81.50
68691;DHT22;55675;49.588;8.640;2022-09-28T18:23:10;12.70;81.50